Aptos, California
Current Conditions -  °F | °C
As of 11:11 AM on Saturday 25 Oct 2014 (Local Time) from KWVI Reporting Station
Light Rain Light Rain  
Wind Chill: 63°   Ceiling: 1900
Heat Index: 63°   Visibility: 10mi
Dew Point: 60°   Wind: 5mph
Humidity: 90%   Direction: 100°E
Pressure: 30.1"   Gusts: NA
Location:  36.98°N, 121.89°W
Report Text: KWVI 251811Z AUTO 10004KT 10SM -RA SCT006 BKN019 OVC027 17/16 A3010 RMK AO2 RAB06 P0000 T01720156
Loading
Personal Weather Stations






























Interactive Weather Map
Tropical Storm Tracking
New forecast layout! Learn more

10-Day Weather Forecast

Advertisements
Track Severe Weather on mobile